»·PEaware :: N2102W KSMX-KSBA

N2102W :: KSMX-KSBA

FLIGHT INFORMATION

Flight Status: Arrived
Operator: Privately registered:
United States
More flights under this callsign
Pilot: Eric G. (5941)
Aircraft: BEECH AIRCRAFT BARON
(BE55)
More flights by this aircraft type
Origin: KSMX Santa Maria Pub/Capt Hancock
United States
Destination: KSBA Santa Barbara Mun
United States
More flights between these airports :: More routes between these airports
Route: BUELT4 GVO
File this flight plan on PilotEdge
Remarks: NA
Altitude:
(Current/Filed)
6,000ft
Speed:
(Current/Filed)
185kts
Departed: 08-Sep-20 05:00 PM
Arrived: 08-Sep-20 05:34 PM
Distance/Time
Traveled:
6875nm/0:33
Distance/Time
To Go:
Arrived

Flight Plot

Page will automatically refresh every two minutes.

Flight plan parsing failed; only flown route is shown


Map Options




Map Legend


Flown Route
Filed Route
Departure Airport
Arrival Airport
Navaid (VOR, NDB)
Fix

Horizontal Profiles

Position Reports

Time Latitude Longitude Heading Altitude Ground
Speed
08-Sep-20 16:36 34.896683 -120.446063 43 256ft 0kts
08-Sep-20 16:37 34.896683 -120.446063 43 256ft 0kts
08-Sep-20 16:38 34.896683 -120.446063 43 256ft 0kts
08-Sep-20 16:39 34.896683 -120.446063 43 256ft 0kts
08-Sep-20 16:40 34.896683 -120.446063 43 256ft 0kts
08-Sep-20 16:41 34.897375 -120.447250 232 253ft 0kts
08-Sep-20 16:42 34.897375 -120.447250 232 253ft 0kts
08-Sep-20 16:43 34.897375 -120.447250 232 253ft 0kts
08-Sep-20 16:44 34.897375 -120.447250 232 253ft 0kts
08-Sep-20 16:45 34.897375 -120.447250 232 253ft 0kts
08-Sep-20 16:46 34.897375 -120.447250 232 253ft 0kts
08-Sep-20 16:47 34.897375 -120.447250 232 253ft 0kts
08-Sep-20 16:48 34.897375 -120.447250 232 253ft 0kts
08-Sep-20 16:49 34.897375 -120.447250 232 253ft 0kts
08-Sep-20 16:50 34.897375 -120.447250 232 253ft 0kts
08-Sep-20 16:51 34.897375 -120.447250 232 253ft 0kts
08-Sep-20 16:52 34.897375 -120.447250 232 253ft 0kts
08-Sep-20 16:53 34.897375 -120.447250 232 253ft 0kts
08-Sep-20 16:54 34.897149 -120.447494 209 253ft 0kts
08-Sep-20 16:55 34.895090 -120.446195 134 259ft 10kts
08-Sep-20 16:56 34.893491 -120.445190 190 263ft 0kts
08-Sep-20 16:57 34.893491 -120.445190 190 263ft 0kts
08-Sep-20 16:58 34.893075 -120.446257 314 264ft 0kts
08-Sep-20 16:59 34.900468 -120.455057 315 320ft 130kts
08-Sep-20 17:00 34.927536 -120.470618 21 1645ft 166kts
08-Sep-20 17:01 34.925520 -120.426496 155 3421ft 168kts
08-Sep-20 17:02 34.880863 -120.431557 190 4803ft 169kts
08-Sep-20 17:03 34.834481 -120.418688 155 5600ft 180kts
08-Sep-20 17:04 34.789150 -120.387553 147 5725ft 192kts
08-Sep-20 17:05 34.745043 -120.351594 147 5721ft 192kts
08-Sep-20 17:06 34.699299 -120.321029 150 6017ft 183kts
08-Sep-20 17:07 34.654371 -120.287342 138 5737ft 194kts
08-Sep-20 17:08 34.617366 -120.241121 132 5222ft 191kts
08-Sep-20 17:09 34.587771 -120.191089 126 4824ft 175kts
08-Sep-20 17:10 34.560060 -120.143317 125 4818ft 172kts
08-Sep-20 17:11 34.532662 -120.097162 139 4816ft 170kts
08-Sep-20 17:12 34.512485 -120.091172 176 4736ft 164kts
08-Sep-20 17:13 34.471903 -120.087406 176 3651ft 140kts
08-Sep-20 17:14 34.443739 -120.084694 176 3424ft 131kts
08-Sep-20 17:15 34.420447 -120.061000 86 2928ft 128kts
08-Sep-20 17:16 34.423155 -120.015770 86 2607ft 133kts
08-Sep-20 17:17 34.424496 -119.971502 95 2261ft 134kts
08-Sep-20 17:18 34.419080 -119.926348 101 1114ft 137kts
08-Sep-20 17:19 34.418722 -119.871433 90 2479ft 165kts
08-Sep-20 17:20 34.395043 -119.837122 182 2969ft 142kts
08-Sep-20 17:21 34.357442 -119.859617 198 3689ft 158kts
08-Sep-20 17:22 34.316182 -119.870863 226 3868ft 150kts
08-Sep-20 17:23 34.320764 -119.921221 297 4003ft 161kts
08-Sep-20 17:24 34.342547 -119.961737 302 3039ft 140kts
08-Sep-20 17:25 34.363687 -120.000844 302 2910ft 142kts
08-Sep-20 17:26 34.385625 -120.041344 302 2915ft 145kts
08-Sep-20 17:27 34.413153 -120.069866 31 2926ft 146kts
08-Sep-20 17:28 34.425918 -120.026425 91 2820ft 143kts
08-Sep-20 17:29 34.424146 -119.978729 91 1938ft 148kts
08-Sep-20 17:30 34.424284 -119.930415 92 1214ft 133kts
08-Sep-20 17:31 34.426740 -119.887016 84 512ft 105kts
08-Sep-20 17:32 34.427586 -119.851276 90 17ft 89kts
08-Sep-20 17:33 34.428168 -119.835116 38 15ft 11kts
08-Sep-20 17:34 34.430191 -119.835349 358 14ft 18kts
08-Sep-20 17:35 34.432639 -119.834741 60 14ft 0kts
08-Sep-20 17:36 34.432639 -119.834741 60 14ft 0kts
08-Sep-20 17:37 34.432639 -119.834741 60 14ft 0kts
08-Sep-20 17:38 34.432639 -119.834741 60 14ft 0kts
08-Sep-20 17:39 34.432639 -119.834741 60 14ft 0kts
08-Sep-20 17:40 0.000000 0.000000 0 0ft 0kts
08-Sep-20 17:41 0.000408 0.013975 0 3ft 0kts

Navigation Log

Ident Type
Flight plan parsing failed, navigation log unavailable